Time;durP1;ratioP1;P1;durP2;ratioP2;P2;SDS_P1;SDS_P2;PMS_P1;PMS_P2;Temp;Humidity;BMP_temperature;BMP_pressure;BME280_temperature;BME280_humidity;BME280_pressure;Samples;Min_cycle;Max_cycle;Signal;HPM_P1;HPM_P2
2021/10/06 00:00:45;;;;;;;;;;;19.60;66.20;;;;;;5058222;28;19920;-65
2021/10/06 00:03:11;;;;;;;;;;;19.60;66.30;;;;;;5060196;28;20298;-65
2021/10/06 00:05:36;;;;;;;;;;;19.60;66.30;;;;;;5058346;28;19920;-63
2021/10/06 00:08:02;;;;;;;;;;;19.60;66.30;;;;;;5057809;28;20056;-64
2021/10/06 00:10:27;;;;;;;;;;;19.60;66.30;;;;;;5061234;28;19952;-66
2021/10/06 00:12:53;;;;;;;;;;;19.60;66.20;;;;;;5043602;28;20418;-65
2021/10/06 00:15:18;;;;;;;;;;;19.60;66.20;;;;;;5056836;28;19926;-65
2021/10/06 00:17:43;;;;;;;;;;;19.60;66.30;;;;;;5063206;28;20139;-66
2021/10/06 00:20:09;;;;;;;;;;;19.60;66.20;;;;;;5063263;28;20152;-66
2021/10/06 00:22:35;;;;;;;;;;;19.60;66.30;;;;;;5043847;28;20437;-66
2021/10/06 00:25:00;;;;;;;;;;;19.60;66.30;;;;;;5061933;28;19917;-66
2021/10/06 00:27:26;;;;;;;;;;;19.60;66.10;;;;;;5058384;28;19921;-63
2021/10/06 00:29:51;;;;;;;;;;;19.60;66.20;;;;;;5058600;28;20596;-65
2021/10/06 00:32:17;;;;;;;;;;;19.60;66.20;;;;;;5065415;28;19987;-65
2021/10/06 00:34:42;;;;;;;;;;;19.60;66.20;;;;;;5060373;28;19916;-66
2021/10/06 00:37:08;;;;;;;;;;;19.60;66.20;;;;;;5065697;28;19920;-65
2021/10/06 00:39:33;;;;;;;;;;;19.60;66.20;;;;;;5050990;28;20298;-66
2021/10/06 00:41:58;;;;;;;;;;;19.60;66.20;;;;;;5058010;28;19960;-65
2021/10/06 00:44:24;;;;;;;;;;;19.60;66.10;;;;;;5062385;28;20421;-64
2021/10/06 00:46:49;;;;;;;;;;;19.60;66.10;;;;;;5060006;28;19917;-63
2021/10/06 00:49:15;;;;;;;;;;;19.60;66.80;;;;;;5063148;28;19916;-64
2021/10/06 00:51:41;;;;;;;;;;;19.60;66.20;;;;;;5068482;28;20017;-66
2021/10/06 00:54:06;;;;;;;;;;;19.60;66.10;;;;;;5064760;28;19924;-66
2021/10/06 00:56:32;;;;;;;;;;;19.60;66.20;;;;;;5065364;28;19920;-65
2021/10/06 00:58:57;;;;;;;;;;;19.60;66.10;;;;;;5062265;28;19941;-66
2021/10/06 01:01:23;;;;;;;;;;;19.60;66.10;;;;;;5055479;28;19916;-66
2021/10/06 01:03:48;;;;;;;;;;;19.60;66.10;;;;;;5060135;28;19924;-66
2021/10/06 01:06:14;;;;;;;;;;;19.60;66.10;;;;;;5064152;28;19927;-65
2021/10/06 01:08:39;;;;;;;;;;;19.60;66.10;;;;;;5056510;28;19916;-64
2021/10/06 01:11:04;;;;;;;;;;;19.60;66.20;;;;;;5040166;28;20021;-65
2021/10/06 01:13:30;;;;;;;;;;;19.60;66.10;;;;;;5063496;28;19916;-65
2021/10/06 01:15:55;;;;;;;;;;;19.60;66.10;;;;;;5040067;28;20290;-66
2021/10/06 01:18:21;;;;;;;;;;;19.60;66.10;;;;;;5054663;28;20043;-66
2021/10/06 01:20:46;;;;;;;;;;;19.60;66.10;;;;;;5060915;28;19927;-66
2021/10/06 01:23:13;;;;;;;;;;;19.60;66.20;;;;;;5055938;28;19916;-66
2021/10/06 01:25:38;;;;;;;;;;;19.60;66.20;;;;;;5042575;28;19923;-63
2021/10/06 01:28:04;;;;;;;;;;;19.60;66.10;;;;;;5063792;28;19924;-65
2021/10/06 01:30:29;;;;;;;;;;;19.60;66.10;;;;;;5062923;28;19917;-65
2021/10/06 01:32:55;;;;;;;;;;;19.60;66.20;;;;;;5061516;28;20047;-64
2021/10/06 01:35:20;;;;;;;;;;;19.60;66.10;;;;;;5057437;28;20379;-65
2021/10/06 01:37:46;;;;;;;;;;;19.60;66.10;;;;;;5060253;28;19916;-66
2021/10/06 01:40:16;;;;;;;;;;;19.60;66.10;;;;;;5052535;28;19921;-66
2021/10/06 01:42:42;;;;;;;;;;;19.60;66.10;;;;;;5057895;28;20401;-64
2021/10/06 01:45:13;;;;;;;;;;;19.60;66.10;;;;;;5062312;28;19948;-64
2021/10/06 01:47:38;;;;;;;;;;;19.60;66.10;;;;;;5061323;28;20345;-62
2021/10/06 01:50:04;;;;;;;;;;;19.60;66.10;;;;;;5054000;28;19924;-65
2021/10/06 01:52:29;;;;;;;;;;;19.60;66.10;;;;;;5063018;28;20275;-62
2021/10/06 01:54:55;;;;;;;;;;;19.60;66.10;;;;;;5061216;28;19920;-67
2021/10/06 01:57:21;;;;;;;;;;;19.60;66.70;;;;;;5057146;28;19948;-66
2021/10/06 01:59:47;;;;;;;;;;;19.60;66.10;;;;;;5048433;28;19927;-66
2021/10/06 02:02:12;;;;;;;;;;;19.60;66.10;;;;;;5043570;28;21399;-66
2021/10/06 02:04:38;;;;;;;;;;;19.60;66.10;;;;;;5061815;28;19966;-66
2021/10/06 02:07:03;;;;;;;;;;;19.60;66.10;;;;;;5058297;28;19917;-65
2021/10/06 02:09:29;;;;;;;;;;;19.60;66.10;;;;;;5054569;28;19927;-66
2021/10/06 02:11:54;;;;;;;;;;;19.60;66.10;;;;;;5060473;28;19936;-66
2021/10/06 02:14:20;;;;;;;;;;;19.60;66.10;;;;;;5060761;28;19921;-66
2021/10/06 02:16:45;;;;;;;;;;;19.60;66.10;;;;;;5055029;28;19944;-65
2021/10/06 02:19:10;;;;;;;;;;;19.60;66.10;;;;;;5059734;28;19924;-66
2021/10/06 02:21:36;;;;;;;;;;;19.60;66.10;;;;;;5062670;28;20456;-65
2021/10/06 02:24:02;;;;;;;;;;;19.60;66.10;;;;;;5059219;28;19954;-65
2021/10/06 02:26:27;;;;;;;;;;;19.60;66.10;;;;;;5058092;28;19917;-65
2021/10/06 02:28:53;;;;;;;;;;;19.60;66.10;;;;;;5057195;28;19920;-61
2021/10/06 02:31:18;;;;;;;;;;;19.60;66.10;;;;;;5063129;28;20422;-63
2021/10/06 02:33:43;;;;;;;;;;;19.50;66.10;;;;;;5045183;28;19966;-64
2021/10/06 02:36:09;;;;;;;;;;;19.60;66.10;;;;;;5061515;28;19916;-66
2021/10/06 02:38:34;;;;;;;;;;;19.50;66.10;;;;;;5054112;28;19921;-66
2021/10/06 02:41:00;;;;;;;;;;;19.50;66.10;;;;;;5058885;28;20410;-65
2021/10/06 02:43:25;;;;;;;;;;;19.50;66.10;;;;;;5058372;28;19927;-66
2021/10/06 02:45:51;;;;;;;;;;;19.60;66.10;;;;;;5054582;28;19996;-66
2021/10/06 02:48:16;;;;;;;;;;;19.60;66.10;;;;;;5058336;28;19924;-65
2021/10/06 02:50:42;;;;;;;;;;;19.60;66.10;;;;;;5054888;28;20340;-65
2021/10/06 02:53:07;;;;;;;;;;;19.50;66.10;;;;;;5055218;28;20311;-65
2021/10/06 02:55:33;;;;;;;;;;;19.50;66.10;;;;;;5063566;28;19932;-65
2021/10/06 02:57:58;;;;;;;;;;;19.60;66.10;;;;;;5059562;28;19921;-65
2021/10/06 03:00:24;;;;;;;;;;;19.60;66.10;;;;;;5058878;28;19921;-65
2021/10/06 03:02:49;;;;;;;;;;;19.60;66.10;;;;;;5061017;28;19967;-65
2021/10/06 03:05:14;;;;;;;;;;;19.60;66.10;;;;;;5055872;28;19917;-65
2021/10/06 03:07:40;;;;;;;;;;;19.50;66.10;;;;;;5057089;28;20451;-65
2021/10/06 03:10:06;;;;;;;;;;;19.60;66.10;;;;;;5053961;28;19916;-65
2021/10/06 03:12:31;;;;;;;;;;;19.60;66.10;;;;;;5058564;28;19916;-64
2021/10/06 03:14:57;;;;;;;;;;;19.50;66.00;;;;;;5057185;28;19917;-64
2021/10/06 03:17:22;;;;;;;;;;;19.50;66.00;;;;;;5052859;28;19970;-61
2021/10/06 03:19:48;;;;;;;;;;;19.50;66.00;;;;;;5062714;28;19959;-66
2021/10/06 03:22:13;;;;;;;;;;;19.50;66.00;;;;;;5063729;28;19916;-65
2021/10/06 03:24:38;;;;;;;;;;;19.50;66.00;;;;;;5061105;28;19924;-65
2021/10/06 03:27:04;;;;;;;;;;;19.50;66.00;;;;;;5062620;28;19916;-66
2021/10/06 03:29:29;;;;;;;;;;;19.50;66.00;;;;;;5061867;28;19916;-65
2021/10/06 03:31:55;;;;;;;;;;;19.50;65.90;;;;;;5054505;28;19924;-66
2021/10/06 03:34:20;;;;;;;;;;;19.50;65.90;;;;;;5060356;28;19959;-65
2021/10/06 03:36:46;;;;;;;;;;;19.50;65.90;;;;;;5058092;28;19924;-67
2021/10/06 03:39:11;;;;;;;;;;;19.60;66.00;;;;;;5053255;28;20008;-66
2021/10/06 03:41:36;;;;;;;;;;;19.60;65.90;;;;;;5062097;28;19958;-65
2021/10/06 03:44:02;;;;;;;;;;;19.50;65.90;;;;;;5061665;28;19978;-65
2021/10/06 03:46:27;;;;;;;;;;;19.50;65.90;;;;;;5056414;28;19925;-65
2021/10/06 03:48:53;;;;;;;;;;;19.50;65.90;;;;;;5041565;28;19975;-65
2021/10/06 03:51:19;;;;;;;;;;;19.50;65.90;;;;;;5059549;28;19920;-64
2021/10/06 03:53:44;;;;;;;;;;;19.50;65.90;;;;;;5060288;28;19916;-61
2021/10/06 03:56:10;;;;;;;;;;;19.50;65.90;;;;;;5058693;28;20276;-64
2021/10/06 03:58:35;;;;;;;;;;;19.50;65.90;;;;;;5059492;28;19917;-64
2021/10/06 04:01:01;;;;;;;;;;;19.50;66.50;;;;;;5063300;28;19921;-65
2021/10/06 04:03:26;;;;;;;;;;;19.50;65.90;;;;;;5061433;28;19927;-65
2021/10/06 04:05:52;;;;;;;;;;;19.50;65.80;;;;;;5061807;28;19916;-64
2021/10/06 04:08:20;;;;;;;;;;;19.50;65.80;;;;;;5046722;28;19923;-64
2021/10/06 04:10:45;;;;;;;;;;;19.50;65.80;;;;;;5052611;28;20216;-64
2021/10/06 04:13:11;;;;;;;;;;;19.50;65.70;;;;;;5063209;28;19940;-66
2021/10/06 04:15:36;;;;;;;;;;;19.50;65.80;;;;;;5057528;28;20410;-66
2021/10/06 04:18:05;;;;;;;;;;;19.50;65.70;;;;;;5063093;28;20037;-66
2021/10/06 04:20:31;;;;;;;;;;;19.50;65.70;;;;;;5063608;28;19921;-65
2021/10/06 04:22:56;;;;;;;;;;;19.50;65.80;;;;;;5061743;28;20548;-64
2021/10/06 04:25:21;;;;;;;;;;;19.50;65.70;;;;;;5059765;28;19917;-65
2021/10/06 04:27:47;;;;;;;;;;;19.50;65.70;;;;;;5066260;28;20322;-65
2021/10/06 04:30:12;;;;;;;;;;;19.50;65.70;;;;;;5065442;28;19917;-62
2021/10/06 04:32:39;;;;;;;;;;;19.50;65.70;;;;;;5061866;28;19928;-65
2021/10/06 04:35:05;;;;;;;;;;;19.50;65.70;;;;;;5065823;28;19981;-64
2021/10/06 04:37:30;;;;;;;;;;;19.50;65.70;;;;;;5032646;28;20411;-62
2021/10/06 04:39:55;;;;;;;;;;;19.50;65.70;;;;;;5033165;28;19970;-64
2021/10/06 04:42:21;;;;;;;;;;;19.50;65.70;;;;;;5049087;28;19917;-65
2021/10/06 04:44:46;;;;;;;;;;;19.50;65.60;;;;;;5048749;28;19924;-64
2021/10/06 04:47:12;;;;;;;;;;;19.50;65.50;;;;;;5062542;28;19959;-62
2021/10/06 04:49:37;;;;;;;;;;;19.50;65.60;;;;;;5066640;28;19939;-63
2021/10/06 04:52:03;;;;;;;;;;;19.50;65.60;;;;;;5042166;28;19921;-64
2021/10/06 04:54:28;;;;;;;;;;;19.50;65.60;;;;;;5061623;28;19939;-65
2021/10/06 04:56:54;;;;;;;;;;;19.50;65.60;;;;;;5065140;28;20337;-65
2021/10/06 04:59:19;;;;;;;;;;;19.50;65.70;;;;;;5063303;28;19948;-65
2021/10/06 05:01:44;;;;;;;;;;;19.50;65.70;;;;;;5061774;28;19939;-64
2021/10/06 05:04:10;;;;;;;;;;;19.50;65.60;;;;;;5061665;28;19927;-64
2021/10/06 05:06:36;;;;;;;;;;;19.50;65.60;;;;;;5060711;28;20437;-64
2021/10/06 05:09:01;;;;;;;;;;;19.50;66.20;;;;;;5061966;28;19920;-65
2021/10/06 05:11:29;;;;;;;;;;;19.50;65.60;;;;;;5059149;28;21588;-64
2021/10/06 05:13:54;;;;;;;;;;;19.50;65.50;;;;;;5060644;28;19985;-64
2021/10/06 05:16:19;;;;;;;;;;;19.50;65.80;;;;;;5062634;28;20379;-64
2021/10/06 05:18:45;;;;;;;;;;;19.50;65.90;;;;;;5042569;28;19952;-65
2021/10/06 05:21:10;;;;;;;;;;;19.50;65.80;;;;;;5066043;28;19924;-65
2021/10/06 05:23:36;;;;;;;;;;;19.50;66.60;;;;;;5065641;28;20229;-64
2021/10/06 05:26:01;;;;;;;;;;;19.50;66.80;;;;;;5065831;28;19919;-64
2021/10/06 05:28:27;;;;;;;;;;;19.50;66.80;;;;;;5067284;28;20375;-62
2021/10/06 05:30:55;;;;;;;;;;;19.50;66.80;;;;;;5068865;28;19962;-64
2021/10/06 05:33:21;;;;;;;;;;;19.50;66.90;;;;;;5079862;28;19919;-66
2021/10/06 05:35:46;;;;;;;;;;;19.50;66.80;;;;;;5084050;28;19921;-65
2021/10/06 05:38:12;;;;;;;;;;;19.50;66.60;;;;;;5080899;28;20042;-65
2021/10/06 05:40:37;;;;;;;;;;;19.50;66.50;;;;;;5082497;28;19924;-66
2021/10/06 05:43:03;;;;;;;;;;;19.50;66.30;;;;;;5083946;28;19991;-66
2021/10/06 05:45:28;;;;;;;;;;;19.50;66.10;;;;;;5071742;28;20346;-66
2021/10/06 05:47:53;;;;;;;;;;;19.50;65.90;;;;;;5067277;28;19917;-64
2021/10/06 05:50:19;;;;;;;;;;;19.50;66.00;;;;;;5066162;28;20002;-65
2021/10/06 05:52:44;;;;;;;;;;;19.50;66.00;;;;;;5065690;28;19927;-65
2021/10/06 05:55:10;;;;;;;;;;;19.50;65.80;;;;;;5065616;28;20306;-65
2021/10/06 05:57:35;;;;;;;;;;;19.50;65.60;;;;;;5065996;28;19923;-65
2021/10/06 06:00:02;;;;;;;;;;;19.50;65.50;;;;;;5064844;28;19916;-65
2021/10/06 06:02:28;;;;;;;;;;;19.50;65.30;;;;;;5065622;28;19924;-64
2021/10/06 06:04:53;;;;;;;;;;;19.50;65.10;;;;;;5066403;28;19921;-64
2021/10/06 06:07:19;;;;;;;;;;;19.50;64.90;;;;;;5064834;28;19919;-62
2021/10/06 06:09:44;;;;;;;;;;;19.50;64.70;;;;;;5064677;28;19959;-65
2021/10/06 06:12:09;;;;;;;;;;;19.40;64.60;;;;;;5064791;28;20275;-65
2021/10/06 06:14:36;;;;;;;;;;;19.40;64.50;;;;;;5064666;28;20291;-65
2021/10/06 06:17:01;;;;;;;;;;;19.40;64.30;;;;;;5064851;28;20026;-65
2021/10/06 06:19:27;;;;;;;;;;;19.50;64.30;;;;;;5064620;28;20066;-66
2021/10/06 06:21:52;;;;;;;;;;;19.50;64.20;;;;;;5065571;28;19935;-66
2021/10/06 06:24:18;;;;;;;;;;;19.40;64.10;;;;;;5064898;28;19921;-66
2021/10/06 06:26:45;;;;;;;;;;;19.40;64.00;;;;;;5064255;28;20206;-65
2021/10/06 06:29:10;;;;;;;;;;;19.50;64.10;;;;;;5047303;28;19920;-65
2021/10/06 06:31:36;;;;;;;;;;;19.40;64.00;;;;;;5065552;28;19913;-65
2021/10/06 06:34:01;;;;;;;;;;;19.40;64.10;;;;;;5064951;28;20504;-64
2021/10/06 06:36:27;;;;;;;;;;;19.40;64.20;;;;;;5047236;28;19920;-65
2021/10/06 06:38:52;;;;;;;;;;;19.40;64.30;;;;;;5064366;28;19912;-65
2021/10/06 06:41:18;;;;;;;;;;;19.40;64.30;;;;;;5047028;28;20019;-64
2021/10/06 06:43:43;;;;;;;;;;;19.40;64.30;;;;;;5065071;28;19913;-64
2021/10/06 06:46:08;;;;;;;;;;;19.40;64.30;;;;;;5065407;28;19976;-65
2021/10/06 06:48:34;;;;;;;;;;;19.40;64.40;;;;;;5046011;28;19920;-64
2021/10/06 06:50:59;;;;;;;;;;;19.40;64.40;;;;;;5064909;28;19935;-64
2021/10/06 06:53:26;;;;;;;;;;;19.40;64.40;;;;;;5065010;28;19913;-65
2021/10/06 06:55:52;;;;;;;;;;;19.40;64.40;;;;;;5064411;28;19920;-65
2021/10/06 06:58:18;;;;;;;;;;;19.40;64.40;;;;;;5064334;28;20212;-66
2021/10/06 07:00:43;;;;;;;;;;;19.40;64.40;;;;;;5063801;28;19924;-65
2021/10/06 07:03:09;;;;;;;;;;;19.40;64.40;;;;;;5064419;28;19916;-64
2021/10/06 07:05:34;;;;;;;;;;;19.40;64.40;;;;;;5064105;28;19924;-65
2021/10/06 07:08:00;;;;;;;;;;;19.40;64.40;;;;;;5064702;28;19913;-65
2021/10/06 07:10:25;;;;;;;;;;;19.40;64.40;;;;;;5065251;28;20451;-65
2021/10/06 07:12:50;;;;;;;;;;;19.40;64.40;;;;;;5064899;28;19917;-65
2021/10/06 07:15:16;;;;;;;;;;;19.40;64.40;;;;;;5065095;28;19918;-65
2021/10/06 07:17:41;;;;;;;;;;;19.40;64.40;;;;;;5063943;28;19913;-61
2021/10/06 07:20:07;;;;;;;;;;;19.40;64.40;;;;;;5046473;28;20309;-64
2021/10/06 07:22:33;;;;;;;;;;;19.40;64.40;;;;;;5064780;28;19932;-65
2021/10/06 07:24:59;;;;;;;;;;;19.40;64.30;;;;;;5049434;28;19913;-65
2021/10/06 07:27:24;;;;;;;;;;;19.40;64.40;;;;;;5072472;28;19966;-64
2021/10/06 07:29:50;;;;;;;;;;;19.40;64.30;;;;;;5071320;28;19919;-65
2021/10/06 07:32:15;;;;;;;;;;;19.40;64.40;;;;;;5071317;28;20345;-64
2021/10/06 07:34:41;;;;;;;;;;;19.40;64.40;;;;;;5071199;28;19916;-65
2021/10/06 07:37:06;;;;;;;;;;;19.40;64.40;;;;;;5070554;28;19913;-65
2021/10/06 07:39:31;;;;;;;;;;;19.40;64.40;;;;;;5070838;28;19917;-65
2021/10/06 07:41:57;;;;;;;;;;;19.40;64.40;;;;;;5071443;28;19913;-64
2021/10/06 07:44:22;;;;;;;;;;;19.40;64.40;;;;;;5071002;28;19962;-65
2021/10/06 07:46:48;;;;;;;;;;;19.40;64.40;;;;;;5071449;28;20402;-66
2021/10/06 07:49:14;;;;;;;;;;;19.40;64.40;;;;;;5071435;28;19912;-64
2021/10/06 07:51:39;;;;;;;;;;;19.40;64.40;;;;;;5071217;28;19943;-63
2021/10/06 07:54:04;;;;;;;;;;;19.40;64.40;;;;;;5071397;28;19913;-64
2021/10/06 07:56:30;;;;;;;;;;;19.30;64.40;;;;;;5072266;28;19913;-65
2021/10/06 07:58:55;;;;;;;;;;;19.30;64.40;;;;;;5071121;28;19920;-65
2021/10/06 08:01:21;;;;;;;;;;;19.30;64.40;;;;;;5070898;28;19916;-65
2021/10/06 08:03:46;;;;;;;;;;;19.30;64.40;;;;;;5070944;28;20500;-66
2021/10/06 08:06:12;;;;;;;;;;;19.30;64.40;;;;;;5070098;28;19919;-65
2021/10/06 08:08:37;;;;;;;;;;;19.30;64.40;;;;;;5070342;28;19919;-66
2021/10/06 08:11:03;;;;;;;;;;;19.30;64.40;;;;;;5070541;28;19921;-65
2021/10/06 08:13:28;;;;;;;;;;;19.30;64.50;;;;;;5070833;28;20306;-63
2021/10/06 08:15:53;;;;;;;;;;;19.30;64.60;;;;;;5070094;28;20616;-65
2021/10/06 08:18:22;;;;;;;;;;;19.30;64.50;;;;;;5070907;28;20377;-65
2021/10/06 08:20:47;;;;;;;;;;;19.30;64.50;;;;;;5070418;28;19920;-64
2021/10/06 08:23:16;;;;;;;;;;;19.30;64.50;;;;;;5071044;28;20340;-65
2021/10/06 08:25:41;;;;;;;;;;;19.30;64.50;;;;;;5070571;28;19916;-66
2021/10/06 08:28:07;;;;;;;;;;;19.30;64.50;;;;;;5070376;28;19913;-65
2021/10/06 08:30:32;;;;;;;;;;;19.30;64.40;;;;;;5052228;28;20133;-63
2021/10/06 08:32:58;;;;;;;;;;;19.30;64.40;;;;;;5071084;28;20395;-64
2021/10/06 08:35:23;;;;;;;;;;;19.30;64.40;;;;;;5070728;28;19962;-66
2021/10/06 08:37:48;;;;;;;;;;;19.30;64.40;;;;;;5065984;28;20277;-66
2021/10/06 08:40:14;;;;;;;;;;;19.30;64.40;;;;;;5066313;28;20375;-66
2021/10/06 08:42:39;;;;;;;;;;;19.30;64.40;;;;;;5067375;28;19981;-66
2021/10/06 08:45:07;;;;;;;;;;;19.30;64.50;;;;;;5067195;28;20181;-66
2021/10/06 08:47:36;;;;;;;;;;;19.30;64.40;;;;;;5068208;28;19920;-66
2021/10/06 08:50:01;;;;;;;;;;;19.30;64.50;;;;;;5067349;28;19963;-66
2021/10/06 08:52:26;;;;;;;;;;;19.30;64.50;;;;;;5067697;28;20598;-66
2021/10/06 08:54:52;;;;;;;;;;;19.30;64.50;;;;;;5066800;28;19935;-66
2021/10/06 08:57:18;;;;;;;;;;;19.30;64.50;;;;;;5066981;28;19920;-66
2021/10/06 08:59:43;;;;;;;;;;;19.30;64.50;;;;;;5066009;28;19916;-66
2021/10/06 09:02:10;;;;;;;;;;;19.30;64.50;;;;;;5067180;28;20280;-65
2021/10/06 09:04:35;;;;;;;;;;;19.30;64.50;;;;;;5066715;28;20386;-65
2021/10/06 09:07:01;;;;;;;;;;;19.30;64.50;;;;;;5065925;28;19966;-65
2021/10/06 09:09:26;;;;;;;;;;;19.30;64.50;;;;;;5066738;28;20272;-64
2021/10/06 09:11:52;;;;;;;;;;;19.30;64.40;;;;;;5066358;28;19920;-64
2021/10/06 09:14:18;;;;;;;;;;;19.30;64.50;;;;;;5048908;28;19912;-64
2021/10/06 09:16:43;;;;;;;;;;;19.30;64.50;;;;;;5048971;28;19920;-64
2021/10/06 09:19:09;;;;;;;;;;;19.30;64.50;;;;;;5066618;28;20326;-66
2021/10/06 09:21:35;;;;;;;;;;;19.30;64.50;;;;;;5066846;28;19922;-65
2021/10/06 09:24:00;;;;;;;;;;;19.30;64.50;;;;;;5065607;28;19919;-67
2021/10/06 09:26:26;;;;;;;;;;;19.30;64.50;;;;;;5066824;28;20291;-66
2021/10/06 09:28:51;;;;;;;;;;;19.30;64.50;;;;;;5047987;28;19913;-65
2021/10/06 09:31:18;;;;;;;;;;;19.30;64.50;;;;;;5066037;28;19923;-66
2021/10/06 09:33:50;;;;;;;;;;;19.30;64.50;;;;;;5066105;28;19948;-65
2021/10/06 09:36:25;;;;;;;;;;;19.20;64.50;;;;;;5048075;28;20527;-66
2021/10/06 09:38:50;;;;;;;;;;;19.30;64.60;;;;;;5066281;28;20339;-66
2021/10/06 09:41:24;;;;;;;;;;;19.30;64.50;;;;;;5065464;28;19956;-66
2021/10/06 09:43:59;;;;;;;;;;;19.20;64.50;;;;;;5066025;28;20337;-63
2021/10/06 09:46:25;;;;;;;;;;;19.20;64.50;;;;;;5047648;28;20019;-65
2021/10/06 09:48:51;;;;;;;;;;;19.20;64.50;;;;;;5046976;28;19919;-65
2021/10/06 09:51:16;;;;;;;;;;;19.20;65.10;;;;;;5065287;28;20286;-63
2021/10/06 09:53:47;;;;;;;;;;;19.20;64.50;;;;;;5065946;28;19970;-63
2021/10/06 09:56:16;;;;;;;;;;;19.20;64.60;;;;;;5047770;28;20057;-65
2021/10/06 09:58:41;;;;;;;;;;;19.20;64.60;;;;;;5065308;28;19970;-65
2021/10/06 10:01:06;;;;;;;;;;;19.20;64.50;;;;;;5065810;28;19920;-64
2021/10/06 10:03:32;;;;;;;;;;;19.20;64.60;;;;;;5047405;28;19944;-63
2021/10/06 10:05:57;;;;;;;;;;;19.20;64.60;;;;;;5066160;28;19912;-66
2021/10/06 10:08:23;;;;;;;;;;;19.20;64.60;;;;;;5047052;28;20390;-65
2021/10/06 10:10:48;;;;;;;;;;;19.20;64.60;;;;;;5048119;28;19913;-67
2021/10/06 10:13:14;;;;;;;;;;;19.20;64.60;;;;;;5049130;28;20207;-66
2021/10/06 10:15:39;;;;;;;;;;;19.20;64.60;;;;;;5049162;28;20232;-66
2021/10/06 10:18:05;;;;;;;;;;;19.20;64.60;;;;;;5064949;28;19912;-66
2021/10/06 10:20:35;;;;;;;;;;;19.20;64.60;;;;;;5047135;28;19916;-66
2021/10/06 10:23:01;;;;;;;;;;;19.20;64.60;;;;;;5065449;28;19912;-68
2021/10/06 10:25:27;;;;;;;;;;;19.20;64.60;;;;;;5046978;28;19916;-66
2021/10/06 10:28:11;;;;;;;;;;;19.20;64.70;;;;;;5065100;28;20009;-63
2021/10/06 10:30:37;;;;;;;;;;;19.20;64.80;;;;;;5064387;28;19955;-66
2021/10/06 10:33:02;;;;;;;;;;;19.20;65.30;;;;;;5064653;28;19912;-66
2021/10/06 10:35:42;;;;;;;;;;;19.20;65.30;;;;;;5064744;28;19920;-65
2021/10/06 10:38:08;;;;;;;;;;;19.20;65.20;;;;;;5064423;28;19920;-63
2021/10/06 10:40:37;;;;;;;;;;;19.20;65.10;;;;;;5064523;28;19916;-65
2021/10/06 10:43:13;;;;;;;;;;;19.10;65.60;;;;;;5060860;28;20043;-66
2021/10/06 10:45:41;;;;;;;;;;;19.20;65.90;;;;;;5064226;28;19913;-64
2021/10/06 10:48:07;;;;;;;;;;;19.10;65.80;;;;;;5064365;28;19943;-65
2021/10/06 10:50:36;;;;;;;;;;;19.20;65.60;;;;;;5047387;28;20419;-64
2021/10/06 10:53:02;;;;;;;;;;;19.20;65.60;;;;;;5064782;28;20002;-65
2021/10/06 10:55:42;;;;;;;;;;;19.20;65.60;;;;;;5064640;28;19921;-65
2021/10/06 10:58:27;;;;;;;;;;;19.20;65.40;;;;;;5063293;28;20475;-62
2021/10/06 11:00:52;;;;;;;;;;;19.10;65.40;;;;;;5063564;28;19920;-65
2021/10/06 11:03:18;;;;;;;;;;;19.20;65.40;;;;;;5064598;28;19935;-65
2021/10/06 11:05:44;;;;;;;;;;;19.20;65.40;;;;;;5046183;28;20011;-65
2021/10/06 11:08:13;;;;;;;;;;;19.20;65.50;;;;;;5064528;28;19916;-64
2021/10/06 11:10:38;;;;;;;;;;;19.10;66.10;;;;;;5046552;28;19944;-66
2021/10/06 11:13:05;;;;;;;;;;;19.20;66.40;;;;;;5064069;28;20228;-66
2021/10/06 11:15:32;;;;;;;;;;;19.10;66.50;;;;;;5064335;28;19919;-66
2021/10/06 11:18:15;;;;;;;;;;;19.10;66.40;;;;;;5045945;28;19913;-66
2021/10/06 11:20:41;;;;;;;;;;;19.10;66.40;;;;;;5063945;28;20422;-66
2021/10/06 11:23:27;;;;;;;;;;;19.10;66.40;;;;;;5046357;28;20348;-66
2021/10/06 11:25:52;;;;;;;;;;;19.10;66.40;;;;;;5063967;28;19927;-66
2021/10/06 11:28:19;;;;;;;;;;;19.10;66.50;;;;;;5062221;28;19913;-66
2021/10/06 11:30:45;;;;;;;;;;;19.20;66.60;;;;;;5063867;28;20439;-66
2021/10/06 11:33:10;;;;;;;;;;;19.20;66.70;;;;;;5046244;28;20007;-60
2021/10/06 11:35:36;;;;;;;;;;;19.10;66.60;;;;;;5046804;28;20410;-67
2021/10/06 11:38:11;;;;;;;;;;;19.20;66.70;;;;;;5064479;28;19913;-66
2021/10/06 11:40:36;;;;;;;;;;;19.10;66.70;;;;;;5068717;28;19921;-67
2021/10/06 11:43:01;;;;;;;;;;;19.10;66.80;;;;;;5064800;28;20439;-66
2021/10/06 11:45:28;;;;;;;;;;;19.10;66.70;;;;;;5064313;28;19959;-66
2021/10/06 11:47:54;;;;;;;;;;;19.10;66.70;;;;;;5063823;28;19917;-66
2021/10/06 11:50:19;;;;;;;;;;;19.20;66.80;;;;;;5045424;28;19924;-65
2021/10/06 11:52:53;;;;;;;;;;;19.10;66.80;;;;;;5063601;28;20374;-66
2021/10/06 11:55:19;;;;;;;;;;;19.10;66.70;;;;;;5063513;28;20214;-66
2021/10/06 11:57:44;;;;;;;;;;;19.10;66.70;;;;;;5063496;28;20212;-66
2021/10/06 12:00:13;;;;;;;;;;;19.10;66.80;;;;;;5063251;28;19959;-66
2021/10/06 12:02:39;;;;;;;;;;;19.10;66.80;;;;;;5063377;28;19920;-66
2021/10/06 12:05:04;;;;;;;;;;;19.10;66.70;;;;;;5063086;28;19923;-65
2021/10/06 12:07:30;;;;;;;;;;;19.10;66.70;;;;;;5064373;28;19920;-66
2021/10/06 12:09:57;;;;;;;;;;;19.10;66.60;;;;;;5045418;28;19955;-66
2021/10/06 12:12:23;;;;;;;;;;;19.10;66.60;;;;;;5032432;28;19920;-65
2021/10/06 12:14:52;;;;;;;;;;;19.10;66.70;;;;;;5067298;28;20420;-66
2021/10/06 12:17:21;;;;;;;;;;;19.10;66.70;;;;;;5067169;28;19913;-66
2021/10/06 12:19:55;;;;;;;;;;;19.20;66.80;;;;;;5049019;28;19999;-66
2021/10/06 12:22:21;;;;;;;;;;;19.10;66.70;;;;;;5067802;28;19958;-66
2021/10/06 12:24:46;;;;;;;;;;;19.10;66.80;;;;;;5032687;28;20333;-65
2021/10/06 12:27:25;;;;;;;;;;;19.10;66.70;;;;;;5066830;28;19917;-66
2021/10/06 12:30:02;;;;;;;;;;;19.10;66.70;;;;;;5066807;28;20007;-66
2021/10/06 12:32:29;;;;;;;;;;;19.20;66.70;;;;;;5066882;28;20649;-65
2021/10/06 12:35:02;;;;;;;;;;;19.10;66.60;;;;;;5067658;28;19919;-64
2021/10/06 12:37:27;;;;;;;;;;;19.10;66.60;;;;;;5058973;28;19917;-66
2021/10/06 12:39:52;;;;;;;;;;;19.10;66.70;;;;;;5066683;28;19924;-65
2021/10/06 12:42:18;;;;;;;;;;;19.10;66.60;;;;;;5049342;28;19931;-65
2021/10/06 12:44:44;;;;;;;;;;;19.10;66.50;;;;;;5067027;28;19913;-63
2021/10/06 12:47:17;;;;;;;;;;;19.10;65.80;;;;;;5066785;28;19916;-64
2021/10/06 12:49:45;;;;;;;;;;;19.10;65.20;;;;;;5066720;28;19913;-66
2021/10/06 12:52:13;;;;;;;;;;;19.20;65.10;;;;;;5066931;28;19916;-65
2021/10/06 12:54:39;;;;;;;;;;;19.10;65.00;;;;;;5048224;28;20002;-66
2021/10/06 12:57:05;;;;;;;;;;;19.10;65.00;;;;;;5066624;28;19918;-65
2021/10/06 12:59:34;;;;;;;;;;;19.10;65.10;;;;;;5067168;28;19932;-63
2021/10/06 13:02:00;;;;;;;;;;;19.10;65.10;;;;;;5066672;28;20003;-65
2021/10/06 13:04:26;;;;;;;;;;;19.20;65.40;;;;;;5067322;28;19988;-63
2021/10/06 13:06:51;;;;;;;;;;;19.20;65.20;;;;;;5066249;28;19920;-62
2021/10/06 13:09:17;;;;;;;;;;;19.20;65.20;;;;;;5066716;28;20563;-65
2021/10/06 13:11:43;;;;;;;;;;;19.20;65.30;;;;;;5065788;28;19919;-64
2021/10/06 13:14:08;;;;;;;;;;;19.10;65.40;;;;;;5047911;28;20011;-66
2021/10/06 13:16:34;;;;;;;;;;;19.20;65.50;;;;;;5048252;28;19936;-66
2021/10/06 13:19:00;;;;;;;;;;;19.10;65.70;;;;;;5065818;28;20315;-66
2021/10/06 13:21:25;;;;;;;;;;;19.10;65.80;;;;;;5065993;28;20383;-64
2021/10/06 13:23:51;;;;;;;;;;;19.10;65.80;;;;;;5065128;28;19913;-64
2021/10/06 13:26:16;;;;;;;;;;;19.10;65.80;;;;;;5065690;28;20647;-66
2021/10/06 13:28:43;;;;;;;;;;;19.10;65.90;;;;;;5065647;28;19920;-62
2021/10/06 13:31:08;;;;;;;;;;;19.10;65.90;;;;;;5057574;28;20403;-66
2021/10/06 13:33:33;;;;;;;;;;;19.10;65.90;;;;;;5065749;28;20247;-66
2021/10/06 13:36:00;;;;;;;;;;;19.10;66.10;;;;;;5066607;28;19913;-63
2021/10/06 13:38:26;;;;;;;;;;;19.10;66.20;;;;;;5065116;28;19913;-62
2021/10/06 13:40:51;;;;;;;;;;;19.10;66.20;;;;;;5066089;28;19922;-64
2021/10/06 13:43:17;;;;;;;;;;;19.20;66.30;;;;;;5048255;28;19919;-66
2021/10/06 13:45:42;;;;;;;;;;;19.10;66.30;;;;;;5065672;28;19966;-66
2021/10/06 13:48:08;;;;;;;;;;;19.10;66.40;;;;;;5065415;28;20294;-65
2021/10/06 13:50:37;;;;;;;;;;;19.10;66.40;;;;;;5065935;28;19943;-67
2021/10/06 13:53:02;;;;;;;;;;;19.10;66.40;;;;;;5048216;28;20098;-66
2021/10/06 13:55:27;;;;;;;;;;;19.20;66.40;;;;;;5064712;28;20108;-65
2021/10/06 13:57:53;;;;;;;;;;;19.10;66.40;;;;;;5065112;28;19920;-66
2021/10/06 14:00:19;;;;;;;;;;;19.10;66.30;;;;;;5065132;28;19920;-66
2021/10/06 14:02:44;;;;;;;;;;;19.10;66.30;;;;;;5065201;28;19958;-66
2021/10/06 14:05:10;;;;;;;;;;;19.10;66.40;;;;;;5065532;28;19921;-66
2021/10/06 14:07:35;;;;;;;;;;;19.10;66.40;;;;;;5065457;28;19912;-67
2021/10/06 14:10:01;;;;;;;;;;;19.20;66.50;;;;;;5065628;28;20342;-64